sensor_id;sensor_type;location;lat;lon;timestamp;temperature;humidity
19920;DHT22;10122;50.074;19.920;2024-03-08T00:01:06;2.80;99.90
19920;DHT22;10122;50.074;19.920;2024-03-08T00:03:32;2.90;99.90
19920;DHT22;10122;50.074;19.920;2024-03-08T00:05:58;2.90;99.90
19920;DHT22;10122;50.074;19.920;2024-03-08T00:08:24;2.80;99.90
19920;DHT22;10122;50.074;19.920;2024-03-08T00:10:50;2.80;99.90
19920;DHT22;10122;50.074;19.920;2024-03-08T00:13:16;2.90;99.90
19920;DHT22;10122;50.074;19.920;2024-03-08T00:15:41;3.00;99.90
19920;DHT22;10122;50.074;19.920;2024-03-08T00:18:07;3.10;99.90
19920;DHT22;10122;50.074;19.920;2024-03-08T00:20:33;2.90;99.90
19920;DHT22;10122;50.074;19.920;2024-03-08T00:22:58;2.90;99.90
19920;DHT22;10122;50.074;19.920;2024-03-08T00:25:24;3.00;99.90
19920;DHT22;10122;50.074;19.920;2024-03-08T00:27:50;3.10;99.90
19920;DHT22;10122;50.074;19.920;2024-03-08T00:30:16;3.20;99.90
19920;DHT22;10122;50.074;19.920;2024-03-08T00:32:42;3.20;99.90
19920;DHT22;10122;50.074;19.920;2024-03-08T00:35:08;3.00;99.90
19920;DHT22;10122;50.074;19.920;2024-03-08T00:37:33;3.00;99.90
19920;DHT22;10122;50.074;19.920;2024-03-08T00:40:02;2.80;99.90
19920;DHT22;10122;50.074;19.920;2024-03-08T00:42:28;2.80;99.90
19920;DHT22;10122;50.074;19.920;2024-03-08T00:44:54;2.90;99.90
19920;DHT22;10122;50.074;19.920;2024-03-08T00:47:19;2.90;99.90
19920;DHT22;10122;50.074;19.920;2024-03-08T00:49:45;2.80;99.90
19920;DHT22;10122;50.074;19.920;2024-03-08T00:52:11;2.80;99.90
19920;DHT22;10122;50.074;19.920;2024-03-08T00:54:37;2.90;99.90
19920;DHT22;10122;50.074;19.920;2024-03-08T00:57:03;2.90;99.90
19920;DHT22;10122;50.074;19.920;2024-03-08T00:59:30;3.00;99.90
19920;DHT22;10122;50.074;19.920;2024-03-08T01:01:59;2.80;99.90
19920;DHT22;10122;50.074;19.920;2024-03-08T01:04:26;2.80;99.90
19920;DHT22;10122;50.074;19.920;2024-03-08T01:06:55;2.90;99.90
19920;DHT22;10122;50.074;19.920;2024-03-08T01:09:22;2.90;99.90
19920;DHT22;10122;50.074;19.920;2024-03-08T01:11:48;2.90;99.90
19920;DHT22;10122;50.074;19.920;2024-03-08T01:14:15;3.00;99.90
19920;DHT22;10122;50.074;19.920;2024-03-08T01:16:40;3.10;99.90
19920;DHT22;10122;50.074;19.920;2024-03-08T01:19:06;3.00;99.90
19920;DHT22;10122;50.074;19.920;2024-03-08T01:21:32;2.90;99.90
19920;DHT22;10122;50.074;19.920;2024-03-08T01:23:58;3.00;99.90
19920;DHT22;10122;50.074;19.920;2024-03-08T01:26:24;3.10;99.90
19920;DHT22;10122;50.074;19.920;2024-03-08T01:28:50;3.10;99.90
19920;DHT22;10122;50.074;19.920;2024-03-08T01:31:15;3.10;99.90
19920;DHT22;10122;50.074;19.920;2024-03-08T01:33:41;3.10;99.90
19920;DHT22;10122;50.074;19.920;2024-03-08T01:36:07;3.00;99.90
19920;DHT22;10122;50.074;19.920;2024-03-08T01:38:33;3.00;99.90
19920;DHT22;10122;50.074;19.920;2024-03-08T01:40:59;3.00;99.90
19920;DHT22;10122;50.074;19.920;2024-03-08T01:43:29;3.00;99.90
19920;DHT22;10122;50.074;19.920;2024-03-08T01:45:56;3.00;99.90
19920;DHT22;10122;50.074;19.920;2024-03-08T01:48:24;3.10;99.90
19920;DHT22;10122;50.074;19.920;2024-03-08T01:50:50;3.20;99.90
19920;DHT22;10122;50.074;19.920;2024-03-08T01:53:18;3.10;99.90
19920;DHT22;10122;50.074;19.920;2024-03-08T01:55:46;3.10;99.90
19920;DHT22;10122;50.074;19.920;2024-03-08T01:58:13;3.00;99.90
19920;DHT22;10122;50.074;19.920;2024-03-08T02:00:44;3.10;99.90
19920;DHT22;10122;50.074;19.920;2024-03-08T02:03:10;3.10;99.90
19920;DHT22;10122;50.074;19.920;2024-03-08T02:05:36;3.00;99.90
19920;DHT22;10122;50.074;19.920;2024-03-08T02:08:04;3.10;99.90
19920;DHT22;10122;50.074;19.920;2024-03-08T02:10:35;3.10;99.90
19920;DHT22;10122;50.074;19.920;2024-03-08T02:13:02;3.00;99.90
19920;DHT22;10122;50.074;19.920;2024-03-08T02:15:55;2.80;99.90
19920;DHT22;10122;50.074;19.920;2024-03-08T02:18:22;2.90;99.90
19920;DHT22;10122;50.074;19.920;2024-03-08T02:20:54;2.90;99.90
19920;DHT22;10122;50.074;19.920;2024-03-08T02:23:21;2.90;99.90
19920;DHT22;10122;50.074;19.920;2024-03-08T02:25:48;2.70;99.90
19920;DHT22;10122;50.074;19.920;2024-03-08T02:28:15;2.70;99.90
19920;DHT22;10122;50.074;19.920;2024-03-08T02:30:41;2.70;99.90
19920;DHT22;10122;50.074;19.920;2024-03-08T02:33:07;2.60;99.90
19920;DHT22;10122;50.074;19.920;2024-03-08T02:35:35;2.60;99.90
19920;DHT22;10122;50.074;19.920;2024-03-08T02:38:02;2.60;99.90
19920;DHT22;10122;50.074;19.920;2024-03-08T02:40:29;2.50;99.90
19920;DHT22;10122;50.074;19.920;2024-03-08T02:42:55;2.40;99.90
19920;DHT22;10122;50.074;19.920;2024-03-08T02:45:20;2.50;99.90
19920;DHT22;10122;50.074;19.920;2024-03-08T02:47:46;2.50;99.90
19920;DHT22;10122;50.074;19.920;2024-03-08T02:50:12;2.70;99.90
19920;DHT22;10122;50.074;19.920;2024-03-08T02:52:42;2.70;99.90
19920;DHT22;10122;50.074;19.920;2024-03-08T02:55:08;2.80;99.90
19920;DHT22;10122;50.074;19.920;2024-03-08T02:57:36;2.90;99.90
19920;DHT22;10122;50.074;19.920;2024-03-08T03:00:02;2.90;99.90
19920;DHT22;10122;50.074;19.920;2024-03-08T03:02:29;2.90;99.90
19920;DHT22;10122;50.074;19.920;2024-03-08T03:04:55;2.90;99.90
19920;DHT22;10122;50.074;19.920;2024-03-08T03:07:21;3.00;99.90
19920;DHT22;10122;50.074;19.920;2024-03-08T03:09:47;3.00;99.90
19920;DHT22;10122;50.074;19.920;2024-03-08T03:12:12;3.00;99.90
19920;DHT22;10122;50.074;19.920;2024-03-08T03:14:39;3.00;99.90
19920;DHT22;10122;50.074;19.920;2024-03-08T03:17:05;3.10;99.90
19920;DHT22;10122;50.074;19.920;2024-03-08T03:19:31;3.00;99.90
19920;DHT22;10122;50.074;19.920;2024-03-08T03:21:56;3.00;99.90
19920;DHT22;10122;50.074;19.920;2024-03-08T03:24:22;3.00;99.90
19920;DHT22;10122;50.074;19.920;2024-03-08T03:26:49;2.90;99.90
19920;DHT22;10122;50.074;19.920;2024-03-08T03:29:15;2.90;99.90
19920;DHT22;10122;50.074;19.920;2024-03-08T03:31:42;2.80;99.90
19920;DHT22;10122;50.074;19.920;2024-03-08T03:34:11;2.80;99.90
19920;DHT22;10122;50.074;19.920;2024-03-08T03:36:37;2.60;99.90
19920;DHT22;10122;50.074;19.920;2024-03-08T03:39:10;2.40;99.90
19920;DHT22;10122;50.074;19.920;2024-03-08T03:41:38;2.50;99.90
19920;DHT22;10122;50.074;19.920;2024-03-08T03:44:05;2.50;99.90
19920;DHT22;10122;50.074;19.920;2024-03-08T03:46:32;2.40;99.90
19920;DHT22;10122;50.074;19.920;2024-03-08T03:48:58;2.50;99.90
19920;DHT22;10122;50.074;19.920;2024-03-08T03:51:24;2.60;99.90
19920;DHT22;10122;50.074;19.920;2024-03-08T03:53:50;2.60;99.90
19920;DHT22;10122;50.074;19.920;2024-03-08T03:56:16;2.60;99.90
19920;DHT22;10122;50.074;19.920;2024-03-08T03:58:42;2.70;99.90
19920;DHT22;10122;50.074;19.920;2024-03-08T04:01:08;2.80;99.90
19920;DHT22;10122;50.074;19.920;2024-03-08T04:03:35;2.90;99.90
19920;DHT22;10122;50.074;19.920;2024-03-08T04:06:01;2.90;99.90
19920;DHT22;10122;50.074;19.920;2024-03-08T04:08:27;3.00;99.90
19920;DHT22;10122;50.074;19.920;2024-03-08T04:10:53;3.00;99.90
19920;DHT22;10122;50.074;19.920;2024-03-08T04:13:19;2.90;99.90
19920;DHT22;10122;50.074;19.920;2024-03-08T04:15:46;2.80;99.90
19920;DHT22;10122;50.074;19.920;2024-03-08T04:18:14;2.80;99.90
19920;DHT22;10122;50.074;19.920;2024-03-08T04:20:39;2.50;99.90
19920;DHT22;10122;50.074;19.920;2024-03-08T04:23:06;2.50;99.90
19920;DHT22;10122;50.074;19.920;2024-03-08T04:25:31;2.40;99.90
19920;DHT22;10122;50.074;19.920;2024-03-08T04:27:57;2.50;99.90
19920;DHT22;10122;50.074;19.920;2024-03-08T04:30:23;2.50;99.90
19920;DHT22;10122;50.074;19.920;2024-03-08T04:32:49;2.50;99.90
19920;DHT22;10122;50.074;19.920;2024-03-08T04:35:15;2.50;99.90
19920;DHT22;10122;50.074;19.920;2024-03-08T04:37:41;2.60;99.90
19920;DHT22;10122;50.074;19.920;2024-03-08T04:40:07;2.50;99.90
19920;DHT22;10122;50.074;19.920;2024-03-08T04:42:33;2.60;99.90
19920;DHT22;10122;50.074;19.920;2024-03-08T04:45:00;2.60;99.90
19920;DHT22;10122;50.074;19.920;2024-03-08T04:47:26;2.60;99.90
19920;DHT22;10122;50.074;19.920;2024-03-08T04:49:51;2.50;99.90
19920;DHT22;10122;50.074;19.920;2024-03-08T04:52:17;2.60;99.90
19920;DHT22;10122;50.074;19.920;2024-03-08T04:54:43;2.70;99.90
19920;DHT22;10122;50.074;19.920;2024-03-08T04:57:10;2.50;99.90
19920;DHT22;10122;50.074;19.920;2024-03-08T04:59:36;2.60;99.90
19920;DHT22;10122;50.074;19.920;2024-03-08T05:02:02;2.70;99.90
19920;DHT22;10122;50.074;19.920;2024-03-08T05:04:28;2.70;99.90
19920;DHT22;10122;50.074;19.920;2024-03-08T05:06:54;2.60;99.90
19920;DHT22;10122;50.074;19.920;2024-03-08T05:09:20;2.70;99.90
19920;DHT22;10122;50.074;19.920;2024-03-08T05:11:47;2.60;99.90
19920;DHT22;10122;50.074;19.920;2024-03-08T05:14:14;2.50;99.90
19920;DHT22;10122;50.074;19.920;2024-03-08T05:16:44;2.50;99.90
19920;DHT22;10122;50.074;19.920;2024-03-08T05:19:17;2.50;99.90
19920;DHT22;10122;50.074;19.920;2024-03-08T05:21:44;2.50;99.90
19920;DHT22;10122;50.074;19.920;2024-03-08T05:24:09;2.30;99.90
19920;DHT22;10122;50.074;19.920;2024-03-08T05:26:36;2.20;99.90
19920;DHT22;10122;50.074;19.920;2024-03-08T05:29:03;2.10;99.90
19920;DHT22;10122;50.074;19.920;2024-03-08T05:31:29;2.10;99.90
19920;DHT22;10122;50.074;19.920;2024-03-08T05:33:56;2.00;99.90
19920;DHT22;10122;50.074;19.920;2024-03-08T05:36:22;1.80;99.90
19920;DHT22;10122;50.074;19.920;2024-03-08T05:38:47;1.90;99.90
19920;DHT22;10122;50.074;19.920;2024-03-08T05:41:16;2.00;99.90
19920;DHT22;10122;50.074;19.920;2024-03-08T05:43:41;1.80;99.90
19920;DHT22;10122;50.074;19.920;2024-03-08T05:46:07;1.80;99.90
19920;DHT22;10122;50.074;19.920;2024-03-08T05:48:33;1.90;99.90
19920;DHT22;10122;50.074;19.920;2024-03-08T05:51:00;1.90;99.90
19920;DHT22;10122;50.074;19.920;2024-03-08T05:53:27;2.00;99.90
19920;DHT22;10122;50.074;19.920;2024-03-08T05:55:53;2.40;99.90
19920;DHT22;10122;50.074;19.920;2024-03-08T05:58:19;2.60;99.90
19920;DHT22;10122;50.074;19.920;2024-03-08T06:00:45;2.70;99.90
19920;DHT22;10122;50.074;19.920;2024-03-08T06:03:11;2.60;99.90
19920;DHT22;10122;50.074;19.920;2024-03-08T06:05:37;2.60;99.90
19920;DHT22;10122;50.074;19.920;2024-03-08T06:08:03;2.50;99.90
19920;DHT22;10122;50.074;19.920;2024-03-08T06:10:30;2.70;99.90
19920;DHT22;10122;50.074;19.920;2024-03-08T06:12:55;2.60;99.90
19920;DHT22;10122;50.074;19.920;2024-03-08T06:15:21;2.50;99.90
19920;DHT22;10122;50.074;19.920;2024-03-08T06:17:47;2.40;99.90
19920;DHT22;10122;50.074;19.920;2024-03-08T06:20:13;2.30;99.90
19920;DHT22;10122;50.074;19.920;2024-03-08T06:22:39;2.20;99.90
19920;DHT22;10122;50.074;19.920;2024-03-08T06:25:13;2.20;99.90
19920;DHT22;10122;50.074;19.920;2024-03-08T06:27:42;2.20;99.90
19920;DHT22;10122;50.074;19.920;2024-03-08T06:30:08;2.10;99.90
19920;DHT22;10122;50.074;19.920;2024-03-08T06:32:35;2.20;99.90
19920;DHT22;10122;50.074;19.920;2024-03-08T06:35:05;2.40;99.90
19920;DHT22;10122;50.074;19.920;2024-03-08T06:37:35;2.50;99.90
19920;DHT22;10122;50.074;19.920;2024-03-08T06:40:02;2.40;99.90
19920;DHT22;10122;50.074;19.920;2024-03-08T06:42:28;2.50;99.90
19920;DHT22;10122;50.074;19.920;2024-03-08T06:44:54;2.40;99.90
19920;DHT22;10122;50.074;19.920;2024-03-08T06:47:25;2.20;99.90
19920;DHT22;10122;50.074;19.920;2024-03-08T06:49:51;2.10;99.90
19920;DHT22;10122;50.074;19.920;2024-03-08T06:52:17;1.90;99.90
19920;DHT22;10122;50.074;19.920;2024-03-08T06:54:43;2.00;99.90
19920;DHT22;10122;50.074;19.920;2024-03-08T06:57:08;2.10;99.90
19920;DHT22;10122;50.074;19.920;2024-03-08T06:59:36;2.10;99.90
19920;DHT22;10122;50.074;19.920;2024-03-08T07:02:02;2.10;99.90
19920;DHT22;10122;50.074;19.920;2024-03-08T07:04:27;2.20;99.90
19920;DHT22;10122;50.074;19.920;2024-03-08T07:06:55;2.20;99.90
19920;DHT22;10122;50.074;19.920;2024-03-08T07:09:21;2.20;99.90
19920;DHT22;10122;50.074;19.920;2024-03-08T07:11:46;2.10;99.90
19920;DHT22;10122;50.074;19.920;2024-03-08T07:14:12;2.10;99.90
19920;DHT22;10122;50.074;19.920;2024-03-08T07:16:40;2.10;99.90
19920;DHT22;10122;50.074;19.920;2024-03-08T07:19:07;2.20;99.90
19920;DHT22;10122;50.074;19.920;2024-03-08T07:21:32;2.30;99.90
19920;DHT22;10122;50.074;19.920;2024-03-08T07:23:58;2.30;99.90
19920;DHT22;10122;50.074;19.920;2024-03-08T07:26:26;2.40;99.90
19920;DHT22;10122;50.074;19.920;2024-03-08T07:28:53;2.50;99.90
19920;DHT22;10122;50.074;19.920;2024-03-08T07:31:20;2.50;99.90
19920;DHT22;10122;50.074;19.920;2024-03-08T07:34:00;2.60;99.90
19920;DHT22;10122;50.074;19.920;2024-03-08T07:36:26;2.50;99.90
19920;DHT22;10122;50.074;19.920;2024-03-08T07:38:51;2.20;99.90
19920;DHT22;10122;50.074;19.920;2024-03-08T07:41:17;2.20;99.90
19920;DHT22;10122;50.074;19.920;2024-03-08T07:43:43;2.20;99.90
19920;DHT22;10122;50.074;19.920;2024-03-08T07:46:10;2.40;99.90
19920;DHT22;10122;50.074;19.920;2024-03-08T07:48:36;2.60;99.90
19920;DHT22;10122;50.074;19.920;2024-03-08T07:51:02;2.60;99.90
19920;DHT22;10122;50.074;19.920;2024-03-08T07:53:31;2.60;99.90
19920;DHT22;10122;50.074;19.920;2024-03-08T07:55:57;2.70;99.90
19920;DHT22;10122;50.074;19.920;2024-03-08T07:58:22;2.60;99.90
19920;DHT22;10122;50.074;19.920;2024-03-08T08:00:49;2.70;99.90
19920;DHT22;10122;50.074;19.920;2024-03-08T08:03:15;2.70;99.90
19920;DHT22;10122;50.074;19.920;2024-03-08T08:05:41;2.80;99.90
19920;DHT22;10122;50.074;19.920;2024-03-08T08:08:10;2.90;99.90
19920;DHT22;10122;50.074;19.920;2024-03-08T08:10:36;2.80;99.90
19920;DHT22;10122;50.074;19.920;2024-03-08T08:13:02;2.80;99.90
19920;DHT22;10122;50.074;19.920;2024-03-08T08:15:30;2.90;99.90
19920;DHT22;10122;50.074;19.920;2024-03-08T08:17:55;3.00;99.90
19920;DHT22;10122;50.074;19.920;2024-03-08T08:20:21;3.00;99.90
19920;DHT22;10122;50.074;19.920;2024-03-08T08:22:48;2.90;99.90
19920;DHT22;10122;50.074;19.920;2024-03-08T08:25:14;3.00;99.90
19920;DHT22;10122;50.074;19.920;2024-03-08T08:27:41;3.00;99.90
19920;DHT22;10122;50.074;19.920;2024-03-08T08:30:08;3.20;99.90
19920;DHT22;10122;50.074;19.920;2024-03-08T08:32:35;3.20;99.90
19920;DHT22;10122;50.074;19.920;2024-03-08T08:35:09;3.30;99.90
19920;DHT22;10122;50.074;19.920;2024-03-08T08:37:39;3.50;99.90
19920;DHT22;10122;50.074;19.920;2024-03-08T08:40:05;3.50;99.90
19920;DHT22;10122;50.074;19.920;2024-03-08T08:42:37;3.50;99.90
19920;DHT22;10122;50.074;19.920;2024-03-08T08:45:07;3.70;99.90
19920;DHT22;10122;50.074;19.920;2024-03-08T08:47:36;3.70;99.90
19920;DHT22;10122;50.074;19.920;2024-03-08T08:50:02;3.80;99.90
19920;DHT22;10122;50.074;19.920;2024-03-08T08:52:30;3.90;99.90
19920;DHT22;10122;50.074;19.920;2024-03-08T08:54:56;3.70;99.90
19920;DHT22;10122;50.074;19.920;2024-03-08T08:57:22;3.80;99.90
19920;DHT22;10122;50.074;19.920;2024-03-08T08:59:47;4.00;99.90
19920;DHT22;10122;50.074;19.920;2024-03-08T09:02:13;3.90;99.90
19920;DHT22;10122;50.074;19.920;2024-03-08T09:04:39;3.70;99.90
19920;DHT22;10122;50.074;19.920;2024-03-08T09:07:05;3.70;99.90
19920;DHT22;10122;50.074;19.920;2024-03-08T09:09:33;3.70;99.90
19920;DHT22;10122;50.074;19.920;2024-03-08T09:12:00;3.80;99.90
19920;DHT22;10122;50.074;19.920;2024-03-08T09:14:26;3.80;99.90
19920;DHT22;10122;50.074;19.920;2024-03-08T09:16:52;4.00;99.90
19920;DHT22;10122;50.074;19.920;2024-03-08T09:19:17;4.10;99.90
19920;DHT22;10122;50.074;19.920;2024-03-08T09:21:45;4.10;99.90
19920;DHT22;10122;50.074;19.920;2024-03-08T09:24:10;4.20;99.90
19920;DHT22;10122;50.074;19.920;2024-03-08T09:26:36;4.10;99.90
19920;DHT22;10122;50.074;19.920;2024-03-08T09:29:02;4.10;99.90
19920;DHT22;10122;50.074;19.920;2024-03-08T09:31:28;4.00;99.90
19920;DHT22;10122;50.074;19.920;2024-03-08T09:33:54;4.00;99.90
19920;DHT22;10122;50.074;19.920;2024-03-08T09:36:20;4.00;99.90
19920;DHT22;10122;50.074;19.920;2024-03-08T09:38:45;4.10;99.90
19920;DHT22;10122;50.074;19.920;2024-03-08T09:41:12;4.10;99.90
19920;DHT22;10122;50.074;19.920;2024-03-08T09:43:39;4.20;99.90
19920;DHT22;10122;50.074;19.920;2024-03-08T09:46:06;4.30;99.90
19920;DHT22;10122;50.074;19.920;2024-03-08T09:48:32;4.30;99.90
19920;DHT22;10122;50.074;19.920;2024-03-08T09:51:00;4.50;99.90
19920;DHT22;10122;50.074;19.920;2024-03-08T09:53:26;4.10;99.90
19920;DHT22;10122;50.074;19.920;2024-03-08T09:55:51;4.30;99.90
19920;DHT22;10122;50.074;19.920;2024-03-08T09:58:17;4.20;99.90
19920;DHT22;10122;50.074;19.920;2024-03-08T10:00:58;4.30;99.90
19920;DHT22;10122;50.074;19.920;2024-03-08T10:03:23;4.40;99.90
19920;DHT22;10122;50.074;19.920;2024-03-08T10:05:51;4.50;99.90
19920;DHT22;10122;50.074;19.920;2024-03-08T10:08:17;4.30;99.90
19920;DHT22;10122;50.074;19.920;2024-03-08T10:10:43;4.40;99.90
19920;DHT22;10122;50.074;19.920;2024-03-08T10:13:09;4.50;99.90
19920;DHT22;10122;50.074;19.920;2024-03-08T10:15:36;4.30;99.90
19920;DHT22;10122;50.074;19.920;2024-03-08T10:18:04;4.10;99.90
19920;DHT22;10122;50.074;19.920;2024-03-08T10:20:30;4.10;99.90
19920;DHT22;10122;50.074;19.920;2024-03-08T10:23:00;4.30;99.90
19920;DHT22;10122;50.074;19.920;2024-03-08T10:25:26;4.20;99.90
19920;DHT22;10122;50.074;19.920;2024-03-08T10:27:51;4.30;99.90
19920;DHT22;10122;50.074;19.920;2024-03-08T10:30:17;4.60;99.90
19920;DHT22;10122;50.074;19.920;2024-03-08T10:32:45;5.10;99.90
19920;DHT22;10122;50.074;19.920;2024-03-08T10:35:11;5.60;99.90
19920;DHT22;10122;50.074;19.920;2024-03-08T10:37:48;6.00;99.90
19920;DHT22;10122;50.074;19.920;2024-03-08T10:40:26;6.20;99.90
19920;DHT22;10122;50.074;19.920;2024-03-08T10:42:54;6.20;99.90
19920;DHT22;10122;50.074;19.920;2024-03-08T10:45:37;6.20;99.90
19920;DHT22;10122;50.074;19.920;2024-03-08T10:48:28;6.30;99.90
19920;DHT22;10122;50.074;19.920;2024-03-08T10:51:02;6.50;99.90
19920;DHT22;10122;50.074;19.920;2024-03-08T10:53:29;6.60;99.90
19920;DHT22;10122;50.074;19.920;2024-03-08T10:55:57;6.50;99.90
19920;DHT22;10122;50.074;19.920;2024-03-08T10:58:24;6.40;99.90
19920;DHT22;10122;50.074;19.920;2024-03-08T11:00:57;6.50;99.90
19920;DHT22;10122;50.074;19.920;2024-03-08T11:06:29;6.80;99.90
19920;DHT22;10122;50.074;19.920;2024-03-08T11:08:55;6.70;99.90
19920;DHT22;10122;50.074;19.920;2024-03-08T11:11:33;6.70;99.90
19920;DHT22;10122;50.074;19.920;2024-03-08T11:14:03;6.80;99.90
19920;DHT22;10122;50.074;19.920;2024-03-08T11:21:36;6.50;99.90
19920;DHT22;10122;50.074;19.920;2024-03-08T11:24:12;6.50;99.90
19920;DHT22;10122;50.074;19.920;2024-03-08T11:26:39;6.70;99.90
19920;DHT22;10122;50.074;19.920;2024-03-08T11:34:41;6.50;99.90
19920;DHT22;10122;50.074;19.920;2024-03-08T11:37:17;6.60;99.90
19920;DHT22;10122;50.074;19.920;2024-03-08T11:40:05;6.70;99.90
19920;DHT22;10122;50.074;19.920;2024-03-08T11:42:37;6.70;99.90
19920;DHT22;10122;50.074;19.920;2024-03-08T11:45:08;6.60;99.90
19920;DHT22;10122;50.074;19.920;2024-03-08T11:47:35;6.40;99.90
19920;DHT22;10122;50.074;19.920;2024-03-08T11:50:00;6.30;99.90
19920;DHT22;10122;50.074;19.920;2024-03-08T11:52:28;6.40;99.90
19920;DHT22;10122;50.074;19.920;2024-03-08T11:54:55;6.50;99.90
19920;DHT22;10122;50.074;19.920;2024-03-08T11:57:23;6.60;99.90
19920;DHT22;10122;50.074;19.920;2024-03-08T11:59:53;6.70;99.90
19920;DHT22;10122;50.074;19.920;2024-03-08T12:02:19;6.50;99.90
19920;DHT22;10122;50.074;19.920;2024-03-08T12:04:45;6.40;99.90
19920;DHT22;10122;50.074;19.920;2024-03-08T12:07:13;6.60;99.90
19920;DHT22;10122;50.074;19.920;2024-03-08T12:09:42;6.70;99.90
19920;DHT22;10122;50.074;19.920;2024-03-08T12:12:12;6.80;99.90
19920;DHT22;10122;50.074;19.920;2024-03-08T12:14:39;6.70;99.90
19920;DHT22;10122;50.074;19.920;2024-03-08T12:17:08;6.50;99.90
19920;DHT22;10122;50.074;19.920;2024-03-08T12:19:35;6.60;99.90
19920;DHT22;10122;50.074;19.920;2024-03-08T12:22:09;6.70;99.90
19920;DHT22;10122;50.074;19.920;2024-03-08T12:24:35;6.90;99.90
19920;DHT22;10122;50.074;19.920;2024-03-08T12:27:17;6.90;99.90
19920;DHT22;10122;50.074;19.920;2024-03-08T12:29:43;6.80;99.90
19920;DHT22;10122;50.074;19.920;2024-03-08T12:32:09;6.70;99.90
19920;DHT22;10122;50.074;19.920;2024-03-08T12:34:37;6.80;99.90
19920;DHT22;10122;50.074;19.920;2024-03-08T12:37:02;6.90;99.90
19920;DHT22;10122;50.074;19.920;2024-03-08T12:39:32;7.00;99.90
19920;DHT22;10122;50.074;19.920;2024-03-08T12:41:58;7.10;99.90
19920;DHT22;10122;50.074;19.920;2024-03-08T12:44:25;7.20;99.90
19920;DHT22;10122;50.074;19.920;2024-03-08T12:46:51;7.30;99.90
19920;DHT22;10122;50.074;19.920;2024-03-08T12:49:19;7.50;99.90
19920;DHT22;10122;50.074;19.920;2024-03-08T12:51:47;7.80;99.90
19920;DHT22;10122;50.074;19.920;2024-03-08T12:54:13;8.10;99.90
19920;DHT22;10122;50.074;19.920;2024-03-08T12:56:39;8.10;99.90
19920;DHT22;10122;50.074;19.920;2024-03-08T12:59:07;8.00;99.90
19920;DHT22;10122;50.074;19.920;2024-03-08T13:01:33;8.30;99.90
19920;DHT22;10122;50.074;19.920;2024-03-08T13:04:00;8.70;99.90
19920;DHT22;10122;50.074;19.920;2024-03-08T13:06:29;8.60;99.90
19920;DHT22;10122;50.074;19.920;2024-03-08T13:08:56;8.40;99.90
19920;DHT22;10122;50.074;19.920;2024-03-08T13:11:24;8.20;99.90
19920;DHT22;10122;50.074;19.920;2024-03-08T13:13:53;8.10;99.90
19920;DHT22;10122;50.074;19.920;2024-03-08T13:16:19;8.10;99.90
19920;DHT22;10122;50.074;19.920;2024-03-08T13:18:45;8.10;99.90
19920;DHT22;10122;50.074;19.920;2024-03-08T13:21:14;7.60;99.90
19920;DHT22;10122;50.074;19.920;2024-03-08T13:23:43;7.30;99.90
19920;DHT22;10122;50.074;19.920;2024-03-08T13:26:12;7.30;99.90
19920;DHT22;10122;50.074;19.920;2024-03-08T13:28:45;7.40;99.90
19920;DHT22;10122;50.074;19.920;2024-03-08T13:31:11;7.30;99.90
19920;DHT22;10122;50.074;19.920;2024-03-08T13:33:38;7.20;99.90
19920;DHT22;10122;50.074;19.920;2024-03-08T13:36:08;7.30;99.90
19920;DHT22;10122;50.074;19.920;2024-03-08T13:38:46;7.40;99.90
19920;DHT22;10122;50.074;19.920;2024-03-08T13:41:16;7.60;99.90
19920;DHT22;10122;50.074;19.920;2024-03-08T13:43:46;7.80;99.90
19920;DHT22;10122;50.074;19.920;2024-03-08T13:46:14;7.90;99.90
19920;DHT22;10122;50.074;19.920;2024-03-08T13:48:40;8.00;99.90
19920;DHT22;10122;50.074;19.920;2024-03-08T13:51:07;8.00;99.90
19920;DHT22;10122;50.074;19.920;2024-03-08T13:53:33;8.00;99.90
19920;DHT22;10122;50.074;19.920;2024-03-08T13:56:01;8.10;99.90
19920;DHT22;10122;50.074;19.920;2024-03-08T13:58:27;8.10;99.90
19920;DHT22;10122;50.074;19.920;2024-03-08T14:00:53;7.90;99.90
19920;DHT22;10122;50.074;19.920;2024-03-08T14:03:19;7.90;99.90
19920;DHT22;10122;50.074;19.920;2024-03-08T14:05:46;8.00;99.90
19920;DHT22;10122;50.074;19.920;2024-03-08T14:08:12;8.00;99.90
19920;DHT22;10122;50.074;19.920;2024-03-08T14:10:38;8.00;99.90
19920;DHT22;10122;50.074;19.920;2024-03-08T14:13:04;7.90;99.90
19920;DHT22;10122;50.074;19.920;2024-03-08T14:15:33;7.90;99.90
19920;DHT22;10122;50.074;19.920;2024-03-08T14:18:07;7.80;99.90
19920;DHT22;10122;50.074;19.920;2024-03-08T14:20:32;7.90;99.90
19920;DHT22;10122;50.074;19.920;2024-03-08T14:22:58;8.00;99.90
19920;DHT22;10122;50.074;19.920;2024-03-08T14:25:24;7.90;99.90
19920;DHT22;10122;50.074;19.920;2024-03-08T14:27:51;7.60;99.90
19920;DHT22;10122;50.074;19.920;2024-03-08T14:30:19;7.40;99.90
19920;DHT22;10122;50.074;19.920;2024-03-08T14:33:03;7.40;99.90
19920;DHT22;10122;50.074;19.920;2024-03-08T14:35:31;7.60;99.90
19920;DHT22;10122;50.074;19.920;2024-03-08T14:37:57;7.70;99.90
19920;DHT22;10122;50.074;19.920;2024-03-08T14:40:24;7.90;99.90
19920;DHT22;10122;50.074;19.920;2024-03-08T14:42:51;7.80;99.90
19920;DHT22;10122;50.074;19.920;2024-03-08T14:45:17;7.90;99.90
19920;DHT22;10122;50.074;19.920;2024-03-08T14:47:48;7.90;99.90
19920;DHT22;10122;50.074;19.920;2024-03-08T14:50:21;7.90;99.90
19920;DHT22;10122;50.074;19.920;2024-03-08T14:52:51;7.80;99.90
19920;DHT22;10122;50.074;19.920;2024-03-08T14:55:21;7.80;99.90
19920;DHT22;10122;50.074;19.920;2024-03-08T14:57:50;7.90;99.90
19920;DHT22;10122;50.074;19.920;2024-03-08T15:00:20;7.90;99.90
19920;DHT22;10122;50.074;19.920;2024-03-08T15:02:55;7.90;99.90
19920;DHT22;10122;50.074;19.920;2024-03-08T15:05:22;7.70;99.90
19920;DHT22;10122;50.074;19.920;2024-03-08T15:07:52;7.60;99.90
19920;DHT22;10122;50.074;19.920;2024-03-08T15:10:18;7.60;99.90
19920;DHT22;10122;50.074;19.920;2024-03-08T15:12:46;7.60;99.90
19920;DHT22;10122;50.074;19.920;2024-03-08T15:15:12;7.60;99.90
19920;DHT22;10122;50.074;19.920;2024-03-08T15:17:40;7.30;99.90
19920;DHT22;10122;50.074;19.920;2024-03-08T15:20:06;7.40;99.90
19920;DHT22;10122;50.074;19.920;2024-03-08T15:22:43;7.50;99.90
19920;DHT22;10122;50.074;19.920;2024-03-08T15:25:10;7.60;99.90
19920;DHT22;10122;50.074;19.920;2024-03-08T15:27:46;7.60;99.90
19920;DHT22;10122;50.074;19.920;2024-03-08T15:30:12;7.70;99.90
19920;DHT22;10122;50.074;19.920;2024-03-08T15:32:47;7.60;99.90
19920;DHT22;10122;50.074;19.920;2024-03-08T15:35:14;7.50;99.90
19920;DHT22;10122;50.074;19.920;2024-03-08T15:37:45;7.50;99.90
19920;DHT22;10122;50.074;19.920;2024-03-08T15:40:14;7.30;99.90
19920;DHT22;10122;50.074;19.920;2024-03-08T15:42:57;7.20;99.90
19920;DHT22;10122;50.074;19.920;2024-03-08T15:45:23;7.30;99.90